Time;durP1;ratioP1;P1;durP2;ratioP2;P2;SDS_P1;SDS_P2;PMS_P1;PMS_P2;Temp;Humidity;BMP_temperature;BMP_pressure;BME280_temperature;BME280_humidity;BME280_pressure;Samples;Min_cycle;Max_cycle;Signal;HPM_P1;HPM_P2
2022/02/28 00:01:10;;;;;;;10.73;7.33;;;2.90;1.00;3.30;102061.00;;;;5033175;28;20799;-79
2022/02/28 00:03:40;;;;;;;9.90;7.20;;;2.80;1.00;3.20;102061.00;;;;5022166;28;20477;-80
2022/02/28 00:06:08;;;;;;;8.83;6.97;;;2.90;1.00;3.10;101443.00;;;;5024476;28;20452;-79
2022/02/28 00:08:36;;;;;;;10.97;7.60;;;2.70;1.00;3.10;102039.00;;;;5032110;28;20504;-80
2022/02/28 00:11:05;;;;;;;11.23;8.30;;;2.60;1.00;3.00;102010.00;;;;5019322;28;20972;-78
2022/02/28 00:13:33;;;;;;;9.80;7.80;;;2.60;1.00;3.00;102023.00;;;;5018414;28;20457;-79
2022/02/28 00:16:02;;;;;;;10.63;7.40;;;2.60;1.00;3.00;102025.00;;;;5017624;28;20449;-78
2022/02/28 00:18:32;;;;;;;10.80;7.67;;;2.50;1.00;3.00;102026.00;;;;5016856;28;20455;-78
2022/02/28 00:21:02;;;;;;;10.27;8.00;;;2.50;1.00;3.00;102012.00;;;;5016963;28;20464;-78
2022/02/28 00:23:32;;;;;;;10.20;7.57;;;2.50;1.00;2.90;101928.00;;;;5018448;28;20480;-79
2022/02/28 00:26:02;;;;;;;10.57;8.17;;;2.50;1.00;3.10;101842.00;;;;5018967;28;20454;-78
2022/02/28 00:28:33;;;;;;;11.77;8.33;;;2.50;1.00;3.20;101934.00;;;;5016909;28;20472;-80
2022/02/28 00:31:02;;;;;;;10.43;8.20;;;2.50;1.00;3.10;102035.00;;;;5038866;28;20518;-79
2022/02/28 00:33:30;;;;;;;8.93;7.20;;;2.50;1.00;3.00;102041.00;;;;5036853;28;20488;-79
2022/02/28 00:36:02;;;;;;;13.57;8.37;;;2.50;1.00;3.00;102052.00;;;;5019522;28;20488;-80
2022/02/28 00:38:30;;;;;;;11.33;8.30;;;2.50;1.00;3.00;102036.00;;;;5041325;28;20464;-78
2022/02/28 00:41:01;;;;;;;10.23;8.13;;;2.40;1.00;3.00;102068.00;;;;5029534;28;20870;-78
2022/02/28 00:43:29;;;;;;;11.07;8.40;;;2.40;1.00;3.00;102055.00;;;;5029573;28;20477;-78
2022/02/28 00:45:58;;;;;;;11.57;8.10;;;2.40;1.00;3.00;102065.00;;;;5032479;28;20464;-79
2022/02/28 00:48:26;;;;;;;11.97;8.63;;;2.40;1.00;3.00;102067.00;;;;5031784;28;20480;-80
2022/02/28 00:50:55;;;;;;;13.63;8.40;;;2.30;1.00;2.80;102065.00;;;;5026682;28;20456;-79
2022/02/28 00:53:24;;;;;;;13.20;8.67;;;2.30;1.00;2.80;102061.00;;;;5041898;28;21027;-79
2022/02/28 00:55:53;;;;;;;11.87;8.97;;;2.20;1.00;2.70;102055.00;;;;5058934;28;20515;-78
2022/02/28 00:58:22;;;;;;;10.23;7.90;;;2.20;1.00;2.70;102074.00;;;;5047513;28;20438;-78
2022/02/28 01:00:51;;;;;;;12.03;8.53;;;2.20;1.00;2.80;102058.00;;;;5051082;28;20481;-78
2022/02/28 01:03:20;;;;;;;8.90;8.00;;;2.20;1.00;2.70;102065.00;;;;5064082;28;20470;-80
2022/02/28 01:05:50;;;;;;;13.00;9.57;;;2.50;1.00;2.70;102064.00;;;;5062071;28;20517;-80
2022/02/28 01:08:18;;;;;;;12.03;9.77;;;2.20;1.00;2.90;102061.00;;;;5049676;28;20503;-80
2022/02/28 01:10:51;;;;;;;10.80;9.30;;;2.30;1.00;2.70;102011.00;;;;5052185;28;20454;-81
2022/02/28 01:13:19;;;;;;;13.93;10.40;;;2.20;1.00;2.70;102040.00;;;;5040023;28;20528;-80
2022/02/28 01:15:48;;;;;;;13.47;10.10;;;2.20;1.00;2.70;102062.00;;;;5042066;28;20460;-81
2022/02/28 01:18:17;;;;;;;14.30;10.00;;;2.20;1.00;2.70;102053.00;;;;5027680;28;20445;-81
2022/02/28 01:20:46;;;;;;;12.20;9.80;;;2.20;1.00;2.70;102050.00;;;;5025812;28;20510;-80
2022/02/28 01:23:14;;;;;;;13.37;10.50;;;2.20;1.00;2.70;102046.00;;;;5023004;28;20489;-80
2022/02/28 01:25:42;;;;;;;10.90;8.67;;;2.20;1.00;2.60;102050.00;;;;5037060;28;20467;-81
2022/02/28 01:28:13;;;;;;;13.00;10.17;;;2.10;1.00;2.60;101995.00;;;;5018508;28;21253;-81
2022/02/28 01:30:42;;;;;;;12.03;9.50;;;2.10;1.00;2.50;102026.00;;;;5020984;28;20452;-80
2022/02/28 01:33:10;;;;;;;11.37;9.60;;;2.00;1.00;2.40;102032.00;;;;5020101;28;20492;-80
2022/02/28 01:35:39;;;;;;;14.33;10.30;;;2.00;1.00;2.40;102044.00;;;;5031283;28;20453;-81
2022/02/28 01:38:07;;;;;;;10.73;8.23;;;1.90;1.00;2.30;102033.00;;;;5056054;28;20497;-80
2022/02/28 01:40:36;;;;;;;11.40;8.47;;;1.80;1.00;2.20;102047.00;;;;5050420;28;20472;-80
2022/02/28 01:43:06;;;;;;;10.40;8.87;;;1.80;1.00;2.20;102037.00;;;;5050046;28;20499;-81
2022/02/28 01:45:36;;;;;;;16.87;9.77;;;1.70;1.00;2.20;66732.00;;;;5043387;28;20537;-80
2022/02/28 01:48:05;;;;;;;14.40;8.93;;;1.70;1.00;2.20;102052.00;;;;5039339;28;20460;-80
2022/02/28 01:50:34;;;;;;;17.00;9.83;;;1.60;1.00;2.10;102026.00;;;;5046239;28;20440;-79
2022/02/28 01:53:05;;;;;;;14.87;9.17;;;1.60;1.00;2.10;102037.00;;;;5064225;28;20456;-80
2022/02/28 01:55:34;;;;;;;11.43;9.43;;;1.60;1.00;2.10;102037.00;;;;5047316;28;20456;-79
2022/02/28 01:58:03;;;;;;;15.33;9.17;;;1.60;1.00;2.00;102008.00;;;;5052760;28;20460;-79
2022/02/28 02:00:35;;;;;;;14.70;8.70;;;1.60;1.00;2.10;102016.00;;;;5050690;28;20761;-80
2022/02/28 02:03:05;;;;;;;10.30;9.10;;;1.60;1.00;2.10;102006.00;;;;5029379;28;20567;-81
2022/02/28 02:05:34;;;;;;;11.00;9.43;;;1.60;1.00;217.30;157547.00;;;;5039042;28;20540;-81
2022/02/28 02:08:07;;;;;;;11.53;9.70;;;1.50;1.00;2.10;102039.00;;;;5029993;28;20529;-82
2022/02/28 02:10:38;;;;;;;12.70;10.00;;;1.50;1.00;2.10;102013.00;;;;5027423;28;20523;-81
2022/02/28 02:13:09;;;;;;;14.40;10.10;;;1.50;1.00;2.00;102013.00;;;;5047859;28;20477;-80
2022/02/28 02:15:39;;;;;;;14.77;10.80;;;1.50;1.00;2.00;102039.00;;;;5043868;28;20465;-80
2022/02/28 02:18:08;;;;;;;14.00;10.93;;;1.50;1.00;2.00;102013.00;;;;5045336;28;20441;-80
2022/02/28 02:20:40;;;;;;;12.43;10.13;;;1.80;1.00;2.10;102002.00;;;;5044786;28;20438;-80
2022/02/28 02:23:12;;;;;;;12.57;9.50;;;1.50;1.00;2.10;102030.00;;;;5065944;28;20473;-80
2022/02/28 02:25:43;;;;;;;16.13;10.50;;;1.50;1.00;2.00;101997.00;;;;5044884;28;20471;-80
2022/02/28 02:28:19;;;;;;;12.80;10.13;;;1.50;1.00;1.90;102023.00;;;;5051904;28;20453;-79
2022/02/28 02:30:50;;;;;;;15.60;10.50;;;1.40;1.00;1.80;102013.00;;;;5054978;28;20539;-79
2022/02/28 02:33:19;;;;;;;13.83;10.93;;;1.40;1.00;1.80;102026.00;;;;5053840;28;20456;-80
2022/02/28 02:35:55;;;;;;;10.90;9.77;;;1.30;1.00;1.80;102038.00;;;;5050811;28;20552;-80
2022/02/28 02:38:26;;;;;;;13.33;9.80;;;1.20;1.00;1.80;102031.00;;;;5060197;28;20541;-79
2022/02/28 02:40:55;;;;;;;12.83;10.53;;;1.20;1.00;1.70;102060.00;;;;5052202;28;20462;-79
2022/02/28 02:43:24;;;;;;;13.83;10.87;;;1.20;1.00;1.60;102044.00;;;;5044528;28;20495;-81
2022/02/28 02:45:53;;;;;;;13.50;11.00;;;1.20;1.00;1.60;102021.00;;;;5034063;28;20532;-80
2022/02/28 02:48:23;;;;;;;10.63;9.43;;;1.10;1.00;1.70;102028.00;;;;5028426;28;20469;-80
2022/02/28 02:51:03;;;;;;;12.93;9.80;;;1.20;1.00;1.80;102024.00;;;;5029093;28;20449;-80
2022/02/28 02:53:33;;;;;;;15.03;10.87;;;1.20;1.00;1.80;102003.00;;;;5030561;28;20507;-80
2022/02/28 02:56:01;;;;;;;15.20;10.40;;;1.30;1.00;1.90;102016.00;;;;5035860;28;20529;-80
2022/02/28 02:58:32;;;;;;;15.13;11.53;;;1.30;1.00;1.80;102018.00;;;;5026046;28;20491;-80
2022/02/28 03:01:01;;;;;;;13.03;10.70;;;1.30;1.00;1.80;102005.00;;;;5029924;28;20444;-80
2022/02/28 03:03:36;;;;;;;12.63;10.13;;;1.30;1.00;1.80;102034.00;;;;5029556;28;20468;-81
2022/02/28 03:06:06;;;;;;;14.93;11.73;;;1.30;1.00;1.70;102024.00;;;;5025421;28;20444;-81
2022/02/28 03:08:36;;;;;;;14.20;10.60;;;1.20;1.00;1.80;101991.00;;;;5024464;28;20477;-81
2022/02/28 03:11:04;;;;;;;15.20;11.70;;;1.20;1.00;1.70;102019.00;;;;5024297;28;20453;-81
2022/02/28 03:13:35;;;;;;;15.43;11.17;;;1.20;1.00;1.60;102028.00;;;;5024251;28;20485;-81
2022/02/28 03:16:05;;;;;;;15.60;10.80;;;1.10;1.00;1.60;66614.00;;;;5024629;28;20492;-81
2022/02/28 03:18:35;;;;;;;13.37;11.20;;;1.10;1.00;1.50;102035.00;;;;5026830;28;20453;-81
2022/02/28 03:21:05;;;;;;;17.97;11.30;;;1.10;1.00;1.50;102016.00;;;;5021255;28;20468;-81
2022/02/28 03:23:34;;;;;;;12.43;10.67;;;1.00;1.00;1.60;102016.00;;;;5021804;28;20923;-81
2022/02/28 03:26:07;;;;;;;13.67;10.70;;;1.10;1.00;1.50;102039.00;;;;5037775;28;20859;-80
2022/02/28 03:28:37;;;;;;;15.60;12.03;;;1.00;1.00;1.50;102031.00;;;;5026482;28;20454;-80
2022/02/28 03:31:06;;;;;;;14.47;11.10;;;1.00;1.00;1.60;102030.00;;;;5026858;28;20472;-80
2022/02/28 03:33:35;;;;;;;13.40;10.80;;;1.00;1.00;1.50;102024.00;;;;5046981;28;20465;-80
2022/02/28 03:36:05;;;;;;;17.80;11.40;;;1.00;1.00;1.50;102018.00;;;;5037441;28;20502;-81
2022/02/28 03:38:37;;;;;;;16.30;11.70;;;1.00;1.00;1.40;102006.00;;;;5042270;28;20472;-80
2022/02/28 03:41:06;;;;;;;14.23;10.90;;;1.00;1.00;1.40;102014.00;;;;5031337;28;20461;-81
2022/02/28 03:43:37;;;;;;;13.67;10.47;;;0.90;1.00;1.40;102015.00;;;;5050899;28;20611;-80
2022/02/28 03:46:14;;;;;;;16.90;12.00;;;0.90;1.00;1.40;102015.00;;;;5042019;28;20529;-81
2022/02/28 03:49:11;;;;;;;14.50;13.00;;;0.90;1.00;1.50;102014.00;;;;4989098;28;20550;-80
2022/02/28 03:51:58;;;;;;;13.83;10.70;;;0.90;1.00;1.50;102025.00;;;;5028390;28;20481;-81
2022/02/28 03:54:45;;;;;;;17.23;11.23;;;0.90;1.00;1.50;102018.00;;;;5022221;28;20556;-81
2022/02/28 03:57:14;;;;;;;12.70;10.97;;;1.00;1.00;1.50;101997.00;;;;5039633;28;20578;-82
2022/02/28 03:59:44;;;;;;;17.50;11.13;;;1.00;1.00;1.40;102001.00;;;;5035739;28;20466;-82
2022/02/28 04:02:13;;;;;;;14.93;10.97;;;1.00;1.00;1.40;102009.00;;;;5060949;28;20469;-81
2022/02/28 04:04:46;;;;;;;13.57;11.37;;;0.90;1.00;1.30;102007.00;;;;5046227;28;20470;-81
2022/02/28 04:07:17;;;;;;;16.03;12.87;;;0.90;1.00;1.30;102004.00;;;;5044407;28;21635;-81
2022/02/28 04:09:46;;;;;;;14.00;11.33;;;0.80;1.00;1.30;102014.00;;;;5026626;28;20474;-80
2022/02/28 04:12:14;;;;;;;18.47;11.10;;;0.80;1.00;1.30;101990.00;;;;5041201;28;20460;-81
2022/02/28 04:14:43;;;;;;;13.97;10.47;;;0.80;1.00;1.40;101984.00;;;;5038967;28;20561;-83
2022/02/28 04:17:14;;;;;;;14.90;10.27;;;0.80;1.00;1.50;102010.00;;;;5025880;28;20503;-82
2022/02/28 04:19:42;;;;;;;11.70;10.47;;;0.90;1.00;1.60;102000.00;;;;5023125;28;20454;-81
2022/02/28 04:22:11;;;;;;;17.43;11.87;;;0.90;1.00;1.50;102009.00;;;;5037775;28;20452;-82
2022/02/28 04:24:46;;;;;;;17.90;11.30;;;0.90;1.00;1.50;101994.00;;;;5022920;28;20485;-81
2022/02/28 04:27:16;;;;;;;16.47;10.57;;;0.90;1.00;1.40;101994.00;;;;5029453;28;20451;-81
2022/02/28 04:29:47;;;;;;;14.17;11.67;;;0.90;1.00;1.40;102000.00;;;;5037650;28;20469;-81
2022/02/28 04:32:19;;;;;;;17.70;11.40;;;0.90;1.00;1.40;101996.00;;;;5021242;28;20457;-80
2022/02/28 04:34:53;;;;;;;17.07;11.37;;;0.90;1.00;1.50;101991.00;;;;5019889;28;21472;-82
2022/02/28 04:37:21;;;;;;;13.17;11.40;;;0.90;1.00;1.40;101980.00;;;;5022575;28;20517;-81
2022/02/28 04:39:51;;;;;;;16.27;11.20;;;0.90;1.00;1.40;101990.00;;;;5036443;28;20452;-81
2022/02/28 04:42:21;;;;;;;12.80;11.00;;;0.90;1.00;1.30;101989.00;;;;5034733;28;20477;-81
2022/02/28 04:44:51;;;;;;;13.67;10.80;;;0.80;1.00;1.20;101959.00;;;;5036636;28;20487;-80
2022/02/28 04:47:22;;;;;;;17.43;11.93;;;0.80;1.00;1.20;101990.00;;;;5020077;28;20462;-81
2022/02/28 04:50:10;;;;;;;14.97;11.23;;;0.70;1.00;1.30;101997.00;;;;5019810;28;20572;-80
2022/02/28 04:52:39;;;;;;;12.27;10.13;;;0.80;1.00;1.20;102000.00;;;;5017745;28;20495;-80
2022/02/28 04:55:09;;;;;;;14.20;11.53;;;0.70;1.00;1.10;101999.00;;;;5017923;28;21042;-80
2022/02/28 04:57:39;;;;;;;13.80;12.07;;;0.70;1.00;1.30;102012.00;;;;5018747;28;20459;-81
2022/02/28 05:00:11;;;;;;;16.77;11.33;;;0.60;1.00;1.30;102014.00;;;;5026140;28;20488;-80
2022/02/28 05:02:41;;;;;;;17.10;12.20;;;0.70;1.00;1.30;102007.00;;;;5041831;28;20457;-81
2022/02/28 05:05:19;;;;;;;15.30;11.63;;;0.70;1.00;1.20;102014.00;;;;5044844;28;20496;-81
2022/02/28 05:07:48;;;;;;;15.53;11.77;;;1.00;1.00;1.20;66520.00;;;;5025624;28;20548;-80
2022/02/28 05:10:18;;;;;;;16.50;11.77;;;1.00;1.00;1.10;101995.00;;;;5026155;28;20496;-80
2022/02/28 05:12:53;;;;;;;14.77;11.20;;;0.70;1.00;1.10;102000.00;;;;5037648;28;20456;-79
2022/02/28 05:15:22;;;;;;;15.87;11.47;;;0.60;1.00;1.20;101996.00;;;;5018500;28;20450;-80
2022/02/28 05:17:51;;;;;;;17.73;12.20;;;0.60;1.00;1.20;102002.00;;;;5016956;28;22062;-82
2022/02/28 05:20:19;;;;;;;16.77;11.60;;;0.70;1.00;1.10;102014.00;;;;5033977;28;20453;-80
2022/02/28 05:22:48;;;;;;;17.37;11.70;;;0.80;1.00;1.10;102005.00;;;;5018941;28;20462;-80
2022/02/28 05:25:18;;;;;;;16.77;11.87;;;0.60;1.00;1.00;102002.00;;;;5017698;28;20445;-80
2022/02/28 05:27:48;;;;;;;13.63;11.30;;;0.60;1.00;1.00;102009.00;;;;5036003;28;20475;-80
2022/02/28 05:30:18;;;;;;;12.07;10.83;;;0.50;1.00;0.90;101972.00;;;;5019418;28;20469;-82
2022/02/28 05:32:49;;;;;;;15.70;11.93;;;0.40;1.00;0.80;102009.00;;;;5027147;28;20532;-80
2022/02/28 05:35:30;;;;;;;15.50;12.40;;;0.40;1.00;0.90;101999.00;;;;5038512;28;20448;-80
2022/02/28 05:38:08;;;;;;;16.23;12.90;;;0.40;1.00;0.90;102014.00;;;;5044529;28;20449;-80
2022/02/28 05:40:39;;;;;;;21.13;12.40;;;0.40;1.00;0.90;102000.00;;;;5026592;28;20461;-80
2022/02/28 05:43:10;;;;;;;18.03;12.03;;;0.40;1.00;0.80;102015.00;;;;5021863;28;20489;-81
2022/02/28 05:45:40;;;;;;;17.77;12.83;;;0.40;1.00;0.90;101996.00;;;;5026046;28;20450;-81
2022/02/28 05:48:47;;;;;;;16.60;11.80;;;0.40;1.00;0.80;102017.00;;;;4976918;28;20919;-82
2022/02/28 05:51:20;;;;;;;16.70;12.33;;;0.40;1.00;0.80;102018.00;;;;4978118;28;20475;-82
2022/02/28 05:53:49;;;;;;;20.57;13.40;;;0.30;1.00;0.80;102032.00;;;;5003815;28;20477;-82
2022/02/28 05:56:18;;;;;;;19.50;13.87;;;0.30;1.00;0.80;102033.00;;;;5019000;28;20978;-81
2022/02/28 05:58:47;;;;;;;19.13;12.37;;;0.60;1.00;0.80;102022.00;;;;5019589;28;20453;-81
2022/02/28 06:01:15;;;;;;;18.80;13.13;;;0.70;1.00;52.70;157013.00;;;;5016061;28;20829;-82
2022/02/28 06:03:44;;;;;;;14.13;11.80;;;0.40;1.00;0.90;102073.00;;;;5035121;28;20475;-80
2022/02/28 06:06:14;;;;;;;15.67;12.03;;;0.40;1.00;0.90;102063.00;;;;5018700;28;20449;-82
2022/02/28 06:08:42;;;;;;;20.30;13.90;;;0.80;1.00;0.90;102054.00;;;;5016652;28;20545;-84
2022/02/28 06:11:11;;;;;;;17.13;13.03;;;0.40;1.00;0.90;102066.00;;;;5036186;28;20475;-80
2022/02/28 06:13:41;;;;;;;17.23;12.93;;;0.40;1.00;0.90;102050.00;;;;5019147;28;20504;-82
2022/02/28 06:16:09;;;;;;;15.60;12.30;;;0.40;1.00;0.90;102028.00;;;;5021035;28;20457;-81
2022/02/28 06:18:38;;;;;;;16.83;12.63;;;0.40;1.00;0.90;102046.00;;;;5036800;28;20537;-81
2022/02/28 06:21:06;;;;;;;19.37;12.70;;;0.40;1.00;0.90;102052.00;;;;5033631;28;20463;-85
2022/02/28 06:23:34;;;;;;;19.73;12.60;;;0.40;1.00;1.00;102058.00;;;;5046195;28;20489;-82
2022/02/28 06:26:03;;;;;;;20.20;12.57;;;0.40;1.00;1.00;102053.00;;;;5035065;28;20820;-82
2022/02/28 06:28:32;;;;;;;18.70;12.40;;;0.50;1.00;1.00;102043.00;;;;5024822;28;20472;-79
2022/02/28 06:31:03;;;;;;;23.83;13.80;;;0.50;1.00;1.00;102055.00;;;;5026369;28;20477;-83
2022/02/28 06:33:32;;;;;;;20.40;12.37;;;0.60;1.00;1.10;102057.00;;;;5036617;28;21053;-80
2022/02/28 06:36:01;;;;;;;17.00;13.10;;;0.50;1.00;1.10;102047.00;;;;5022432;28;21457;-82
2022/02/28 06:38:29;;;;;;;15.90;12.97;;;0.60;1.00;1.20;102068.00;;;;5056015;28;20528;-83
2022/02/28 06:40:58;;;;;;;15.53;12.53;;;0.60;1.00;1.30;102060.00;;;;5041334;28;20458;-84
2022/02/28 06:43:27;;;;;;;17.53;12.17;;;0.70;1.00;1.50;102031.00;;;;5047848;28;20483;-83
2022/02/28 06:45:56;;;;;;;22.40;12.80;;;0.90;1.00;52.70;157259.00;;;;5048187;28;20509;-84
2022/02/28 06:48:29;;;;;;;19.83;12.83;;;1.00;1.00;1.50;102067.00;;;;5050329;28;20508;-84
2022/02/28 06:50:57;;;;;;;15.60;11.30;;;1.00;1.00;1.60;102025.00;;;;5052415;28;20527;-84
2022/02/28 06:53:26;;;;;;;23.83;13.03;;;1.00;1.00;1.70;102093.00;;;;5049259;28;20495;-82
2022/02/28 06:55:54;;;;;;;18.23;12.90;;;1.10;1.00;1.80;102066.00;;;;5050427;28;20441;-81
2022/02/28 06:58:23;;;;;;;21.43;12.30;;;1.10;1.00;1.90;102080.00;;;;5034247;28;20445;-80
2022/02/28 07:00:52;;;;;;;19.00;12.70;;;1.20;1.00;2.10;102086.00;;;;5027569;28;20519;-80
2022/02/28 07:03:35;;;;;;;16.00;12.10;;;1.40;1.00;2.30;102095.00;;;;5048032;28;20981;-80
2022/02/28 07:06:05;;;;;;;15.60;12.20;;;1.60;1.00;2.30;102081.00;;;;5034234;28;20457;-81
2022/02/28 07:08:35;;;;;;;21.70;14.90;;;1.60;1.00;2.40;102087.00;;;;5030228;28;20459;-81
2022/02/28 07:11:03;;;;;;;17.20;12.30;;;1.70;1.00;2.60;102086.00;;;;5029817;28;20472;-81
2022/02/28 07:13:33;;;;;;;14.93;11.20;;;1.90;1.00;2.70;102067.00;;;;5025121;28;20572;-82
2022/02/28 07:16:02;;;;;;;17.10;11.60;;;2.00;1.00;2.90;102075.00;;;;5023297;28;20963;-83
2022/02/28 07:18:30;;;;;;;16.30;12.10;;;2.20;1.00;2.90;102096.00;;;;5027458;28;20564;-81
2022/02/28 07:21:00;;;;;;;16.37;11.87;;;2.50;1.00;3.10;102098.00;;;;5025988;28;20486;-83
2022/02/28 07:23:28;;;;;;;17.23;11.73;;;2.40;1.00;3.20;102085.00;;;;5024768;28;20509;-82
2022/02/28 07:25:57;;;;;;;14.80;12.40;;;2.50;1.00;3.30;102099.00;;;;5026220;28;20468;-83
2022/02/28 07:28:25;;;;;;;14.93;11.43;;;2.60;1.00;3.30;102089.00;;;;5036477;28;20449;-82
2022/02/28 07:30:53;;;;;;;17.03;11.93;;;3.00;1.00;3.40;102081.00;;;;5051423;28;20466;-82
2022/02/28 07:33:22;;;;;;;15.90;11.57;;;3.20;1.00;3.50;102092.00;;;;5033553;28;20488;-80
2022/02/28 07:35:50;;;;;;;19.27;12.60;;;2.90;1.00;3.60;102080.00;;;;5023023;28;20453;-80
2022/02/28 07:38:20;;;;;;;18.93;12.27;;;3.00;1.00;3.60;102061.00;;;;5027500;28;20457;-80
2022/02/28 07:40:48;;;;;;;21.87;12.90;;;3.00;1.00;3.80;102085.00;;;;5024802;28;20970;-80
2022/02/28 07:43:17;;;;;;;16.40;12.17;;;3.20;1.00;3.80;102096.00;;;;5026427;28;22204;-81
2022/02/28 07:45:46;;;;;;;17.23;11.50;;;3.20;1.00;3.80;102079.00;;;;5027867;28;20466;-80
2022/02/28 07:48:14;;;;;;;13.53;11.60;;;3.30;1.00;3.80;102075.00;;;;5026094;28;20803;-80
2022/02/28 07:50:43;;;;;;;15.07;11.50;;;3.30;1.00;3.90;102110.00;;;;5021954;28;20529;-81
2022/02/28 07:53:11;;;;;;;15.13;11.57;;;3.30;1.00;3.90;102091.00;;;;5021562;28;20501;-81
2022/02/28 07:55:41;;;;;;;15.67;11.40;;;3.40;1.00;4.00;102107.00;;;;5020664;28;20487;-81
2022/02/28 07:58:10;;;;;;;13.87;11.23;;;3.50;1.00;4.10;102097.00;;;;5037326;28;20564;-81
2022/02/28 08:00:38;;;;;;;20.13;12.30;;;3.60;1.00;4.20;102107.00;;;;5022687;28;20464;-82
2022/02/28 08:03:07;;;;;;;15.43;10.97;;;3.70;1.00;4.40;102101.00;;;;5037277;28;20468;-82
2022/02/28 08:05:35;;;;;;;14.67;11.20;;;4.10;1.00;4.30;102094.00;;;;5022944;28;20535;-83
2022/02/28 08:08:05;;;;;;;16.87;12.30;;;3.80;1.00;4.30;102118.00;;;;5034577;28;20460;-80
2022/02/28 08:10:33;;;;;;;16.63;11.53;;;3.90;1.00;4.40;102092.00;;;;5018697;28;20567;-81
2022/02/28 08:13:03;;;;;;;17.07;13.07;;;3.90;1.00;4.50;102134.00;;;;5017705;28;20492;-81
2022/02/28 08:15:32;;;;;;;15.93;11.33;;;4.10;1.00;4.70;102119.00;;;;5020231;28;20543;-81
2022/02/28 08:18:00;;;;;;;15.47;11.60;;;4.20;1.00;4.80;102138.00;;;;5017685;28;20549;-80
2022/02/28 08:20:29;;;;;;;14.23;11.73;;;4.30;1.00;4.80;102122.00;;;;5020950;28;20848;-84
2022/02/28 08:22:57;;;;;;;14.13;11.40;;;4.30;1.00;4.70;102117.00;;;;5020927;28;20908;-80
2022/02/28 08:25:26;;;;;;;14.33;11.23;;;4.30;1.00;4.80;102121.00;;;;5021060;28;20468;-83
2022/02/28 08:27:54;;;;;;;15.43;10.83;;;4.40;1.00;4.80;102127.00;;;;5023119;28;20462;-79
2022/02/28 08:30:24;;;;;;;12.47;11.20;;;4.30;1.00;4.80;102119.00;;;;5022472;28;20911;-81
2022/02/28 08:32:53;;;;;;;14.60;11.40;;;4.60;1.00;4.80;102136.00;;;;5021614;28;20473;-80
2022/02/28 08:35:23;;;;;;;13.83;11.10;;;4.40;1.00;4.90;102125.00;;;;5020913;28;20457;-80
2022/02/28 08:37:52;;;;;;;14.93;11.60;;;4.50;1.00;5.00;102119.00;;;;5036302;28;20959;-82
2022/02/28 08:40:23;;;;;;;13.87;11.53;;;4.60;1.00;5.10;102116.00;;;;5036882;28;20995;-81
2022/02/28 08:42:57;;;;;;;17.43;12.17;;;4.60;1.00;5.30;102114.00;;;;5036244;28;20529;-82
2022/02/28 08:45:27;;;;;;;14.13;10.90;;;4.80;1.00;5.30;102128.00;;;;5017306;28;20970;-81
2022/02/28 08:47:55;;;;;;;13.23;11.30;;;4.90;1.00;5.20;102117.00;;;;5034270;28;20449;-80
2022/02/28 08:50:23;;;;;;;12.83;10.60;;;5.20;1.00;5.30;102104.00;;;;5018387;28;20446;-81
2022/02/28 08:52:52;;;;;;;15.00;11.20;;;4.90;1.00;5.30;102098.00;;;;5020356;28;20516;-80
2022/02/28 08:55:20;;;;;;;14.77;11.37;;;5.00;1.00;5.40;102098.00;;;;5019089;28;20457;-82
2022/02/28 08:57:48;;;;;;;13.90;10.33;;;5.00;1.00;5.40;102114.00;;;;5032796;28;20444;-79
2022/02/28 09:00:17;;;;;;;13.10;10.67;;;5.10;1.00;5.60;102102.00;;;;5041430;28;20445;-81
2022/02/28 09:02:47;;;;;;;14.00;11.10;;;5.20;1.00;5.70;102100.00;;;;5043924;28;20464;-80
2022/02/28 09:05:16;;;;;;;11.70;10.20;;;5.20;1.00;5.70;102125.00;;;;5047692;28;20463;-81
2022/02/28 09:07:44;;;;;;;13.90;9.93;;;5.30;1.00;5.70;102106.00;;;;5061392;28;20817;-81
2022/02/28 09:10:13;;;;;;;13.70;9.73;;;5.70;1.00;5.80;102122.00;;;;5042861;28;20463;-82
2022/02/28 09:12:42;;;;;;;12.73;10.80;;;5.40;1.00;5.80;102110.00;;;;5023338;28;20499;-81
2022/02/28 09:15:11;;;;;;;11.23;9.97;;;5.40;1.00;6.00;102106.00;;;;5026070;28;20991;-82
2022/02/28 09:17:39;;;;;;;13.83;11.87;;;5.60;1.00;6.20;102087.00;;;;5040663;28;20763;-82
2022/02/28 09:20:13;;;;;;;16.03;10.97;;;5.80;1.00;6.30;67638.00;;;;5044179;28;21053;-82
2022/02/28 09:22:42;;;;;;;14.17;10.83;;;5.90;1.00;6.20;67626.00;;;;5037761;28;20446;-82
2022/02/28 09:25:12;;;;;;;13.83;10.57;;;5.90;1.00;6.20;102106.00;;;;5035925;28;20459;-82
2022/02/28 09:27:41;;;;;;;13.80;10.43;;;5.90;1.00;6.10;102089.00;;;;5052515;28;20448;-82
2022/02/28 09:30:21;;;;;;;15.40;11.73;;;5.80;1.00;6.30;102117.00;;;;5035733;28;20452;-82
2022/02/28 09:32:55;;;;;;;12.83;10.33;;;6.00;1.00;6.40;102103.00;;;;5033917;28;20472;-81
2022/02/28 09:35:26;;;;;;;13.00;11.43;;;6.10;1.00;6.40;102118.00;;;;5041579;28;20475;-83
2022/02/28 09:37:55;;;;;;;15.07;11.80;;;6.00;1.00;6.50;102111.00;;;;5024040;28;20460;-79
2022/02/28 09:40:31;;;;;;;16.43;10.50;;;6.10;1.00;6.60;102111.00;;;;5024386;28;20459;-80
2022/02/28 09:43:36;;;;;;;12.93;10.47;;;6.20;1.00;6.60;102100.00;;;;5030340;28;20481;-80
2022/02/28 09:46:26;;;;;;;13.13;11.50;;;6.30;1.00;6.70;102128.00;;;;5040472;28;20469;-80
2022/02/28 09:49:04;;;;;;;13.40;10.03;;;6.30;1.00;6.80;102095.00;;;;5040241;28;20472;-81
2022/02/28 09:51:58;;;;;;;12.77;11.10;;;6.40;1.00;6.80;102080.00;;;;5038988;28;21172;-81
2022/02/28 09:54:50;;;;;;;13.33;10.47;;;6.50;1.00;6.80;102088.00;;;;5020252;28;20469;-81
2022/02/28 09:57:38;;;;;;;15.00;11.10;;;6.50;1.00;6.90;102088.00;;;;5025739;28;20451;-81
2022/02/28 10:00:18;;;;;;;17.30;11.60;;;6.50;1.00;7.00;102115.00;;;;5030395;28;20534;-81
2022/02/28 10:02:50;;;;;;;11.47;9.80;;;6.60;1.00;7.10;102106.00;;;;5021042;28;20980;-82
2022/02/28 10:05:21;;;;;;;14.00;10.97;;;6.80;1.00;7.20;102103.00;;;;5022361;28;20484;-81
2022/02/28 10:07:55;;;;;;;11.77;9.70;;;6.90;1.00;7.20;102102.00;;;;5020758;28;20451;-80
2022/02/28 10:10:27;;;;;;;12.40;11.10;;;6.90;1.00;7.30;102114.00;;;;5024293;28;20456;-80
2022/02/28 10:12:56;;;;;;;15.03;11.43;;;7.00;1.00;7.40;102100.00;;;;5025038;28;20485;-80
2022/02/28 10:15:26;;;;;;;12.50;10.50;;;7.10;1.00;7.40;102104.00;;;;5028120;28;20485;-82
2022/02/28 10:17:57;;;;;;;13.87;11.37;;;7.10;1.00;7.50;102109.00;;;;5020810;28;20461;-82
2022/02/28 10:20:28;;;;;;;14.43;11.57;;;6.90;1.00;7.50;102099.00;;;;5022700;28;20453;-82
2022/02/28 10:23:00;;;;;;;12.30;10.40;;;7.30;1.00;7.60;102108.00;;;;5031521;28;20491;-81
2022/02/28 10:25:36;;;;;;;11.37;10.23;;;7.30;1.00;7.70;102094.00;;;;5037710;28;20449;-81
2022/02/28 10:28:31;;;;;;;11.57;9.83;;;7.40;1.00;7.90;102095.00;;;;5042803;28;20504;-79
2022/02/28 10:31:24;;;;;;;14.00;10.77;;;7.60;1.00;7.90;102097.00;;;;5040122;28;20451;-81
2022/02/28 10:33:57;;;;;;;13.67;10.10;;;7.70;1.00;8.10;102100.00;;;;5037613;28;20578;-81
2022/02/28 10:36:50;;;;;;;13.20;10.43;;;7.80;1.00;8.00;102097.00;;;;5037272;28;20488;-81
2022/02/28 10:39:25;;;;;;;10.47;9.37;;;7.80;1.00;8.10;102084.00;;;;5037954;28;20527;-80
2022/02/28 10:41:56;;;;;;;14.50;10.70;;;7.80;1.00;8.30;102103.00;;;;5045991;28;21389;-80
2022/02/28 10:44:25;;;;;;;13.83;11.10;;;8.00;1.00;8.30;102091.00;;;;5036573;28;20476;-80
2022/02/28 10:46:53;;;;;;;12.30;10.93;;;8.10;1.00;8.30;102072.00;;;;5028168;28;20523;-79
2022/02/28 10:49:28;;;;;;;11.63;9.33;;;8.10;1.00;8.30;102081.00;;;;5051247;28;20484;-81
2022/02/28 10:51:59;;;;;;;11.23;9.67;;;8.10;1.00;8.50;102079.00;;;;5031346;28;20467;-80
2022/02/28 10:54:31;;;;;;;10.83;9.60;;;8.20;1.00;8.50;102088.00;;;;5032979;28;20488;-81
2022/02/28 10:57:04;;;;;;;12.17;10.73;;;8.30;1.00;8.70;102056.00;;;;5029447;28;20445;-80
2022/02/28 10:59:40;;;;;;;12.10;10.57;;;8.40;1.00;8.90;102071.00;;;;5026262;28;20495;-80
2022/02/28 11:02:24;;;;;;;10.40;9.30;;;8.60;1.00;9.00;102074.00;;;;5024477;28;20460;-79
2022/02/28 11:05:06;;;;;;;12.63;10.40;;;8.70;1.00;9.00;102070.00;;;;5022340;28;20483;-80
2022/02/28 11:07:42;;;;;;;15.20;10.87;;;8.80;1.00;9.10;102068.00;;;;5021586;28;20583;-79
2022/02/28 11:10:14;;;;;;;11.37;10.00;;;8.90;1.00;9.20;102073.00;;;;5023610;28;20457;-79
2022/02/28 11:12:43;;;;;;;12.83;10.60;;;9.00;1.00;9.30;102076.00;;;;5022343;28;20455;-79
2022/02/28 11:15:15;;;;;;;12.83;9.57;;;9.10;1.00;9.40;102072.00;;;;5015013;28;20461;-79